Change the Weather History Date:

Friday, May 31, 2013

  Actual Average (KCIU) Record (KCIU)
Temperature  
Mean Temperature 67 °F -  
Max Temperature 77 °F 68 °F 107 °F (2001)
Min Temperature 56 °F 41 °F 25 °F (1981)
Cooling Degree Days 2    
Growing Degree Days 17 (Base 50)    
Moisture  
Dew Point 61 °F    
Average Humidity 83    
Maximum Humidity 100    
Minimum Humidity 58    
Precipitation  
Precipitation 0.00 in - - ()
Sea Level Pressure  
Sea Level Pressure 29.82 in    
Wind  
Wind Speed 5 mph (South)    
Max Wind Speed 10 mph    
Max Gust Speed 18 mph    
Visibility 10 miles    
Events Rain    
Averages and records for this station are not official NWS values.
T = Trace of Precipitation, MM = Missing Value Source: NWS Daily Summary

Daily Weather History Graph

Daily Weather History Graph

Search for Another Location

Airport or City:

Trip Planner

Search our weather history database for the weather conditions in past years. The results will help you decide how hot, cold, wet, or windy it might be!

Date:

Astronomy

May. 31, 2013 Rise Set
Actual Time 5:48 AM EDT 9:17 PM EDT
Civil Twilight 5:10 AM EDT 9:55 PM EDT
Nautical Twilight 4:21 AM EDT 10:44 PM EDT
Astronomical Twilight 3:17 AM EDT 11:49 PM EDT
Moon 1:36 AM EDT (5/31) 1:19 PM EDT (5/31)
Length of Visible Light 16h 44m
Length of Day
15h 29m
Waning Gibbous, 51% of the Moon is Illuminated
May 31
Waning Gibbous
May 31
Last Quarter
Jun 8
New
Jun 16
First Quarter
Jun 23
Full

Hourly Weather History & Observations

Time (EDT) Temp. Dew Point Humidity Pressure Visibility Wind Dir Wind Speed Gust Speed Precip Events Conditions
12:16 AM 65.5 °F 63.5 °F 93% 29.87 in 10.0 mi South 6.9 mph - N/A   Clear
12:36 AM 64.8 °F 63.1 °F 94% 29.87 in 10.0 mi South 4.6 mph - N/A   Clear
12:55 AM 64.4 °F 63.1 °F 96% 29.87 in 10.0 mi Calm Calm - N/A   Clear
1:16 AM 64.6 °F 63.5 °F 96% 29.88 in 10.0 mi SE 3.5 mph - N/A   Clear
1:35 AM 64.4 °F 63.1 °F 96% 29.88 in 10.0 mi South 3.5 mph - N/A   Clear
1:55 AM 63.5 °F 62.6 °F 97% 29.89 in 10.0 mi South 5.8 mph - N/A   Clear
2:16 AM 63.5 °F 62.8 °F 97% 29.89 in 10.0 mi South 5.8 mph - N/A Rain Light Rain
2:36 AM 63.7 °F 62.8 °F 97% 29.88 in 10.0 mi SSW 4.6 mph - N/A Rain Light Rain
2:56 AM 64.6 °F 63.0 °F 94% 29.87 in 10.0 mi SSW 3.5 mph - N/A   Clear
3:16 AM 64.8 °F 63.0 °F 94% 29.87 in 10.0 mi SSW 3.5 mph - N/A   Clear
3:36 AM 65.5 °F 62.6 °F 90% 29.86 in 10.0 mi South 5.8 mph - N/A   Clear
3:56 AM 63.9 °F 61.7 °F 93% 29.85 in 10.0 mi SSE 5.8 mph - N/A   Clear
4:16 AM 62.2 °F 61.0 °F 96% 29.85 in 10.0 mi SSE 6.9 mph - N/A   Clear
4:35 AM 61.3 °F 60.4 °F 97% 29.84 in 10.0 mi SSE 5.8 mph - N/A   Clear
4:56 AM 61.2 °F 60.6 °F 98% 29.84 in 10.0 mi SSE 6.9 mph - N/A   Clear
5:16 AM 61.7 °F 61.3 °F 99% 29.84 in 10.0 mi SSE 5.8 mph - N/A   Clear
5:35 AM 61.3 °F 61.3 °F 100% 29.84 in 7.0 mi SSE 6.9 mph - N/A   Scattered Clouds
5:56 AM 61.2 °F 61.2 °F 100% 29.84 in 1.0 mi SSE 6.9 mph - N/A   Overcast
6:15 AM 60.8 °F 60.8 °F 100% 29.84 in 4.0 mi SSE 9.2 mph - N/A   Scattered Clouds
6:36 AM 60.1 °F 60.1 °F 100% 29.85 in 5.0 mi SSE 9.2 mph - N/A   Scattered Clouds
6:56 AM 59.9 °F 59.9 °F 100% 29.84 in 5.0 mi SSE 8.1 mph - N/A   Scattered Clouds
7:15 AM 60.3 °F 60.3 °F 100% 29.84 in 5.0 mi SSE 8.1 mph - N/A   Clear
7:36 AM 61.7 °F 61.0 °F 97% 29.84 in 7.0 mi SSE 5.8 mph - N/A   Clear
7:56 AM 63.1 °F 61.7 °F 95% 29.82 in 10.0 mi SSE 5.8 mph - N/A   Scattered Clouds
8:16 AM 64.2 °F 62.2 °F 93% 29.83 in 10.0 mi SSE 9.2 mph - N/A   Scattered Clouds
8:36 AM 63.9 °F 61.9 °F 93% 29.82 in 10.0 mi SSE 8.1 mph - N/A   Clear
8:55 AM 63.7 °F 61.5 °F 93% 29.83 in 10.0 mi SSE 6.9 mph - N/A   Clear
9:16 AM 66.4 °F 63.0 °F 89% 29.83 in 10.0 mi SSE 5.8 mph - N/A   Clear
9:36 AM 68.7 °F 63.1 °F 82% 29.82 in 10.0 mi SSE 8.1 mph - N/A   Clear
9:56 AM 68.9 °F 61.9 °F 78% 29.82 in 10.0 mi South 6.9 mph - N/A   Clear
10:16 AM 68.4 °F 61.3 °F 78% 29.82 in 10.0 mi South 8.1 mph - N/A   Clear
10:35 AM 68.2 °F 61.5 °F 79% 29.82 in 10.0 mi SSE 6.9 mph - N/A   Scattered Clouds
10:56 AM 67.5 °F 60.8 °F 79% 29.82 in 10.0 mi SSE 6.9 mph - N/A   Overcast
11:16 AM 65.8 °F 60.3 °F 82% 29.82 in 10.0 mi South 5.8 mph - N/A   Overcast
11:35 AM 67.5 °F 60.4 °F 78% 29.82 in 10.0 mi SE 4.6 mph - N/A   Mostly Cloudy
11:56 AM 71.6 °F 61.7 °F 71% 29.82 in 10.0 mi South 10.4 mph 16.1 mph N/A   Mostly Cloudy
12:16 PM 68.9 °F 60.1 °F 73% 29.83 in 10.0 mi South 8.1 mph - N/A   Mostly Cloudy
12:35 PM 68.2 °F 59.9 °F 75% 29.83 in 10.0 mi SSW 8.1 mph - N/A   Overcast
12:56 PM 71.6 °F 60.8 °F 69% 29.83 in 10.0 mi WSW 8.1 mph 18.4 mph N/A   Scattered Clouds
1:16 PM 72.5 °F 61.7 °F 69% 29.82 in 10.0 mi Calm Calm - N/A   Clear
1:36 PM 73.8 °F 62.4 °F 68% 29.82 in 10.0 mi WNW 5.8 mph - N/A   Clear
1:56 PM 75.4 °F 62.8 °F 65% 29.81 in 10.0 mi West 5.8 mph - N/A   Clear
2:16 PM 75.4 °F 62.4 °F 64% 29.81 in 10.0 mi West 5.8 mph - N/A   Clear
2:36 PM 76.8 °F 62.2 °F 61% 29.80 in 10.0 mi SSW 6.9 mph - N/A   Clear
2:56 PM 77.0 °F 61.5 °F 59% 29.80 in 10.0 mi West 6.9 mph - N/A   Clear
3:15 PM 77.2 °F 61.2 °F 58% 29.80 in 10.0 mi SW 6.9 mph - N/A   Clear
3:36 PM 76.6 °F 60.8 °F 58% 29.80 in 10.0 mi WSW 5.8 mph - N/A   Clear
3:55 PM 74.5 °F 62.4 °F 66% 29.80 in 10.0 mi SSW 8.1 mph - N/A   Clear
4:16 PM 72.7 °F 62.1 °F 69% 29.79 in 10.0 mi South 5.8 mph - N/A   Clear
4:36 PM 74.7 °F 62.8 °F 66% 29.79 in 10.0 mi South 4.6 mph - N/A   Clear
4:55 PM 74.5 °F 62.1 °F 65% 29.79 in 10.0 mi South 3.5 mph - N/A   Clear
5:16 PM 75.4 °F 62.4 °F 64% 29.79 in 10.0 mi SE 4.6 mph - N/A   Clear
5:36 PM 75.0 °F 61.7 °F 63% 29.79 in 10.0 mi SE 3.5 mph - N/A   Clear
5:55 PM 75.2 °F 62.2 °F 64% 29.79 in 10.0 mi South 5.8 mph - N/A   Clear
6:16 PM 72.9 °F 61.2 °F 67% 29.79 in 10.0 mi South 5.8 mph - N/A   Clear
6:36 PM 71.2 °F 60.6 °F 69% 29.79 in 10.0 mi South 4.6 mph - N/A   Clear
6:55 PM 70.9 °F 61.0 °F 71% 29.79 in 10.0 mi South 5.8 mph - N/A   Clear
7:16 PM 70.0 °F 60.3 °F 71% 29.78 in 10.0 mi SSW 4.6 mph - N/A   Clear
7:36 PM 69.1 °F 60.8 °F 75% 29.78 in 10.0 mi SSW 4.6 mph - N/A   Clear
7:56 PM 68.0 °F 60.4 °F 77% 29.79 in 10.0 mi SSW 3.5 mph - N/A   Clear
8:16 PM 67.3 °F 60.3 °F 78% 29.79 in 10.0 mi Calm Calm - N/A   Clear
8:36 PM 66.4 °F 59.9 °F 80% 29.79 in 10.0 mi Calm Calm - N/A   Clear
8:56 PM 66.2 °F 60.4 °F 82% 29.78 in 10.0 mi Calm Calm - N/A   Clear
9:16 PM 65.5 °F 60.1 °F 83% 29.79 in 10.0 mi Calm Calm - N/A   Clear
9:36 PM 64.4 °F 60.3 °F 86% 29.79 in 10.0 mi Calm Calm - N/A   Clear
9:56 PM 63.1 °F 60.1 °F 90% 29.79 in 10.0 mi Calm Calm - N/A   Clear
10:15 PM 62.6 °F 60.1 °F 91% 29.78 in 10.0 mi SE 3.5 mph - N/A   Clear
10:36 PM 61.7 °F 59.2 °F 91% 29.78 in 10.0 mi Calm Calm - N/A   Clear
10:56 PM 60.3 °F 58.3 °F 93% 29.78 in 10.0 mi Calm Calm - N/A   Clear
11:15 PM 59.4 °F 57.4 °F 93% 29.78 in 10.0 mi SE 3.5 mph - N/A   Clear
11:36 PM 57.6 °F 55.8 °F 94% 29.77 in 10.0 mi Calm Calm - N/A   Clear
11:56 PM 56.7 °F 55.2 °F 95% 29.78 in 10.0 mi SSW 3.5 mph - N/A   Clear